Accueil
METAR-TAF:

METAR-TAF

Aéroports :

Djeddah, Arabie saoudite

Aéroport international Roi-Abdelaziz

latitude: 21-42N, longitude: 039-11E, altitude: 15 m

Observation

Le bulletin a été fait il y a 1 heure et 3 minutes, à 18:00 UTC
Vent 11 kt de nord-ouest
Température 27°C
Humidité 79%
Pression 1007 hPa
Visibilité 10 km ou plus
pas de nuages en-dessous de 1500 mètres et pas de cumulonimbus.

METAR: OEJN 241800Z 31011KT CAVOK 27/23 Q1007 NOSIG

Heure: 22:03 (19:03 UTC)

Prévision

Le bulletin a été fait il y a 2 heures et 3 minutes, à 17:00 UTC
Prévision valable du 24 à 18 UTC au 25 à 24 UTC
Vent 6 kt de nord
Visibilité: 7000 m
Evoluant progressivement
du 25 à 06 UTC au 25 à 08 UTC
Vent 15 kt de nord-ouest

TAF: OEJN 241700Z 2418/2524 36006KT 7000 NSC BECMG 2506/2508 32015KT

Observations et prévisions météorologiques de plus de 4000 aéroports (messages METAR et TAF).

Les stations disponibles sont représentées par des disques jaunes et rouges sur la carte.

Passer la souris dessus pour voir le nom de la station.

Cliquer dessus pour voir les observations et prévisions météorologiques.

Pour changer de carte: cliquez sur les boutons verts avec une croix noire pour zoomer, sur le bouton vert avec un tiret pour effectuer un zoom arrière, ou sur les flèches vertes pour les cartes adjacentes.


METAR-TAF: